Time;durP1;ratioP1;P1;durP2;ratioP2;P2;SDS_P1;SDS_P2;PMS_P1;PMS_P2;Temp;Humidity;BMP_temperature;BMP_pressure;BME280_temperature;BME280_humidity;BME280_pressure;Samples;Min_cycle;Max_cycle;Signal;HPM_P1;HPM_P2
2021/05/06 00:09:44;;;;;;;0.35;0.35;;;11.80;59.30;;;;;;5034304;28;20124;-67
2021/05/06 00:31:09;;;;;;;0.30;0.20;;;11.50;64.90;;;;;;5033715;28;20199;-67
2021/05/06 00:33:35;;;;;;;0.22;0.22;;;11.40;65.60;;;;;;5033951;28;20079;-67
2021/05/06 00:36:01;;;;;;;0.30;0.30;;;11.30;65.90;;;;;;5034099;28;20052;-67
2021/05/06 00:38:30;;;;;;;0.30;0.30;;;11.30;66.10;;;;;;5033988;28;20045;-67
2021/05/06 00:43:56;;;;;;;0.40;0.40;;;11.30;66.30;;;;;;5033406;28;20045;-67
2021/05/06 01:04:54;;;;;;;0.32;0.32;;;11.10;67.70;;;;;;5050738;28;20575;-67
2021/05/06 01:12:41;;;;;;;0.52;0.40;;;11.10;68.30;;;;;;5049639;28;20045;-67
2021/05/06 01:15:08;;;;;;;0.75;0.40;;;10.90;69.40;;;;;;5049275;28;20054;-67
2021/05/06 01:17:35;;;;;;;0.57;0.43;;;10.60;70.60;;;;;;5049716;28;20629;-67
2021/05/06 01:20:01;;;;;;;0.30;0.30;;;10.50;71.80;;;;;;5050083;28;20398;-67
2021/05/06 01:22:27;;;;;;;0.43;0.43;;;10.30;72.20;;;;;;5049675;28;20049;-67
2021/05/06 01:24:57;;;;;;;0.32;0.30;;;10.20;73.30;;;;;;5049790;28;20048;-67
2021/05/06 01:27:32;;;;;;;1.02;0.57;;;10.10;73.70;;;;;;5049706;28;20087;-67
2021/05/06 01:30:45;;;;;;;0.30;0.30;;;9.90;73.90;;;;;;5019896;28;20051;-67
2021/05/06 01:32:58;;;;;;;0.93;0.60;;;9.80;74.60;;;;;;5028839;28;20558;-67
2021/05/06 01:35:42;;;;;;;0.60;0.40;;;9.70;74.80;;;;;;5019227;28;20132;-67
2021/05/06 02:00:00;;;;;;;0.40;0.40;;;9.60;74.90;;;;;;5032039;28;20132;-67
2021/05/06 02:02:26;;;;;;;0.65;0.40;;;9.50;75.30;;;;;;5032450;28;20058;-67
2021/05/06 02:04:53;;;;;;;0.43;0.43;;;9.40;76.50;;;;;;5032097;28;20049;-67
2021/05/06 02:07:19;;;;;;;0.52;0.40;;;9.40;75.70;;;;;;5032350;28;20135;-67
2021/05/06 02:09:47;;;;;;;0.52;0.38;;;9.30;75.80;;;;;;5032393;28;20092;-67
2021/05/06 02:12:15;;;;;;;0.80;0.50;;;9.30;75.90;;;;;;5031657;28;20603;-67
2021/05/06 02:17:31;;;;;;;1.02;0.45;;;9.30;76.40;;;;;;5029656;28;20061;-67
2021/05/06 02:19:58;;;;;;;0.63;0.40;;;9.40;76.30;;;;;;5029570;28;20042;-67
2021/05/06 02:22:24;;;;;;;0.95;0.57;;;9.30;76.30;;;;;;5029587;28;20057;-67
2021/05/06 02:24:50;;;;;;;0.75;0.40;;;9.30;76.30;;;;;;5029010;28;20134;-67
2021/05/06 02:27:17;;;;;;;1.00;0.50;;;9.40;76.20;;;;;;5029752;28;20056;-67
2021/05/06 02:29:43;;;;;;;0.40;0.40;;;9.40;76.20;;;;;;5029472;28;20067;-66
2021/05/06 02:32:10;;;;;;;0.75;0.57;;;9.40;76.10;;;;;;5029430;28;20612;-67
2021/05/06 02:34:36;;;;;;;1.05;0.47;;;9.50;75.70;;;;;;5029338;28;20136;-67
2021/05/06 02:37:02;;;;;;;0.55;0.38;;;9.60;75.70;;;;;;5029638;28;20056;-67
2021/05/06 02:39:29;;;;;;;0.55;0.38;;;9.60;76.10;;;;;;5029554;28;20049;-67
2021/05/06 02:41:55;;;;;;;0.70;0.45;;;9.50;76.50;;;;;;5028901;28;20041;-67
2021/05/06 02:44:22;;;;;;;0.50;0.40;;;9.50;77.30;;;;;;5029572;28;20054;-66
2021/05/06 02:46:48;;;;;;;0.60;0.45;;;9.40;77.50;;;;;;5029263;28;20128;-67
2021/05/06 02:49:14;;;;;;;0.65;0.40;;;9.30;78.00;;;;;;5029319;28;20054;-67
2021/05/06 02:51:47;;;;;;;0.45;0.38;;;9.20;78.80;;;;;;5029107;28;20053;-67
2021/05/06 02:54:14;;;;;;;0.28;0.28;;;9.20;78.50;;;;;;5029920;28;20179;-67
2021/05/06 02:57:05;;;;;;;0.77;0.50;;;9.20;78.50;;;;;;5031569;28;20136;-67
2021/05/06 03:02:44;;;;;;;0.20;0.20;;;9.20;78.70;;;;;;5021216;28;20060;-67
2021/05/06 03:05:03;;;;;;;0.40;0.40;;;9.40;78.50;;;;;;5031324;28;20068;-67
2021/05/06 03:07:31;;;;;;;0.77;0.40;;;9.50;77.70;;;;;;5031558;28;20049;-67
2021/05/06 03:23:23;;;;;;;0.32;0.32;;;9.30;78.20;;;;;;5029059;28;20127;-67
2021/05/06 03:25:50;;;;;;;0.20;0.20;;;9.20;78.50;;;;;;5028488;28;20128;-67
2021/05/06 03:28:25;;;;;;;0.40;0.32;;;9.20;78.20;;;;;;5028998;28;20132;-67
2021/05/06 04:27:20;;;;;;;0.20;0.20;;;8.70;83.20;;;;;;5039850;28;20084;-67
2021/05/06 04:38:01;;;;;;;0.52;0.38;;;8.80;83.10;;;;;;5033745;28;20049;-67
2021/05/06 04:54:14;;;;;;;0.40;0.40;;;8.70;83.80;;;;;;5041646;28;20046;-68
2021/05/06 05:04:39;;;;;;;0.40;0.30;;;8.90;83.50;;;;;;5045557;28;20053;-67
2021/05/06 05:07:30;;;;;;;0.40;0.40;;;9.00;83.20;;;;;;5037759;28;20122;-67
2021/05/06 05:12:52;;;;;;;0.30;0.30;;;8.90;84.20;;;;;;5043006;28;20421;-67
2021/05/06 05:18:19;;;;;;;0.75;0.40;;;8.70;85.70;;;;;;5041623;28;20046;-67
2021/05/06 05:21:13;;;;;;;0.77;0.50;;;8.60;86.00;;;;;;5045064;28;20045;-67
2021/05/06 05:23:43;;;;;;;0.40;0.40;;;8.60;86.50;;;;;;5047671;28;20119;-67
2021/05/06 05:26:11;;;;;;;0.88;0.60;;;8.60;87.60;;;;;;5033467;28;20053;-67
2021/05/06 05:28:38;;;;;;;0.80;0.50;;;8.60;86.70;;;;;;5038945;28;20359;-67
2021/05/06 05:31:05;;;;;;;0.95;0.40;;;8.70;87.10;;;;;;5028887;28;20046;-67
2021/05/06 05:33:37;;;;;;;0.77;0.50;;;8.60;87.40;;;;;;5035097;28;20156;-67
2021/05/06 05:36:15;;;;;;;0.73;0.70;;;8.60;87.90;;;;;;5031935;28;20184;-67
2021/05/06 05:54:46;;;;;;;0.65;0.50;;;8.70;88.00;;;;;;5013063;28;20073;-68
2021/05/06 05:57:13;;;;;;;0.68;0.60;;;8.80;87.80;;;;;;5016332;28;20049;-69
2021/05/06 05:59:39;;;;;;;0.40;0.40;;;8.90;87.70;;;;;;5013227;28;20126;-68
2021/05/06 06:02:06;;;;;;;0.52;0.52;;;9.00;87.20;;;;;;5015487;28;20065;-68
2021/05/06 06:04:33;;;;;;;0.88;0.60;;;9.10;87.10;;;;;;5013117;28;20176;-67
2021/05/06 06:06:59;;;;;;;0.50;0.50;;;9.10;86.80;;;;;;5013764;28;20073;-67
2021/05/06 06:09:25;;;;;;;0.43;0.43;;;9.20;87.00;;;;;;5023257;28;20056;-67
2021/05/06 06:11:52;;;;;;;0.40;0.40;;;9.20;86.80;;;;;;5029106;28;20152;-68
2021/05/06 06:14:25;;;;;;;0.60;0.38;;;9.30;86.80;;;;;;5030804;28;20056;-68
2021/05/06 06:16:51;;;;;;;0.60;0.50;;;9.20;87.00;;;;;;5031162;28;20187;-68
2021/05/06 06:19:20;;;;;;;1.20;0.65;;;9.10;87.20;;;;;;5030851;28;20064;-68
2021/05/06 06:21:50;;;;;;;0.60;0.50;;;9.10;87.70;;;;;;5031112;28;20121;-68
2021/05/06 06:24:18;;;;;;;0.40;0.40;;;9.10;87.90;;;;;;5029285;28;20045;-68
2021/05/06 06:26:45;;;;;;;1.02;0.60;;;9.00;88.30;;;;;;5032630;28;20091;-67
2021/05/06 06:29:17;;;;;;;0.30;0.30;;;9.00;88.80;;;;;;5033569;28;20055;-68
2021/05/06 06:31:48;;;;;;;0.77;0.40;;;8.90;89.00;;;;;;5031987;28;20557;-68
2021/05/06 06:34:15;;;;;;;0.55;0.40;;;8.90;89.10;;;;;;5031566;28;20140;-70
2021/05/06 06:36:44;;;;;;;0.20;0.20;;;8.90;89.40;;;;;;5012951;28;20884;-67
2021/05/06 06:39:14;;;;;;;0.52;0.43;;;9.00;89.40;;;;;;5014241;28;20176;-67
2021/05/06 06:41:41;;;;;;;0.40;0.30;;;9.00;89.30;;;;;;5017641;28;20073;-66
2021/05/06 06:44:08;;;;;;;0.52;0.40;;;9.10;88.90;;;;;;5020353;28;20065;-67
2021/05/06 06:46:34;;;;;;;0.20;0.20;;;9.10;88.60;;;;;;5031627;28;20513;-67
2021/05/06 06:49:01;;;;;;;0.20;0.20;;;9.30;88.50;;;;;;5031183;28;20077;-67
2021/05/06 06:51:28;;;;;;;0.30;0.30;;;9.30;88.50;;;;;;5032543;28;20095;-66
2021/05/06 06:53:54;;;;;;;0.20;0.20;;;9.40;88.30;;;;;;5034529;28;20166;-66
2021/05/06 06:56:21;;;;;;;0.20;0.20;;;9.40;88.40;;;;;;5033923;28;20417;-67
2021/05/06 06:58:52;;;;;;;0.20;0.20;;;9.40;88.20;;;;;;5035859;28;20102;-67
2021/05/06 07:01:19;;;;;;;0.40;0.30;;;9.50;87.70;;;;;;5030741;28;20053;-67
2021/05/06 07:03:46;;;;;;;0.10;0.10;;;9.60;87.70;;;;;;5020114;28;20049;-67
2021/05/06 07:06:12;;;;;;;0.30;0.30;;;9.60;87.30;;;;;;5023092;28;20049;-67
2021/05/06 07:08:41;;;;;;;0.10;0.10;;;9.70;87.50;;;;;;5035049;28;20124;-65
2021/05/06 07:11:09;;;;;;;0.22;0.22;;;9.70;87.60;;;;;;5030066;28;20121;-65
2021/05/06 07:13:36;;;;;;;0.25;0.25;;;9.70;87.50;;;;;;5028383;28;20060;-64
2021/05/06 07:16:05;;;;;;;0.30;0.28;;;9.70;87.60;;;;;;5040931;28;20064;-65
2021/05/06 07:18:33;;;;;;;0.32;0.30;;;9.70;87.60;;;;;;5021165;28;20049;-65
2021/05/06 07:21:04;;;;;;;0.20;0.20;;;9.70;88.00;;;;;;5035049;28;20073;-65
2021/05/06 07:23:32;;;;;;;0.30;0.30;;;9.80;87.80;;;;;;5033237;28;20108;-65
2021/05/06 07:25:59;;;;;;;0.30;0.30;;;9.70;88.20;;;;;;5035441;28;20120;-65
2021/05/06 07:28:30;;;;;;;0.20;0.20;;;9.80;88.50;;;;;;5038501;28;20154;-65
2021/05/06 07:30:57;;;;;;;0.20;0.20;;;9.80;88.50;;;;;;5037962;28;20195;-65
2021/05/06 07:33:23;;;;;;;0.10;0.10;;;9.80;89.40;;;;;;5041066;28;20049;-65
2021/05/06 07:35:49;;;;;;;0.20;0.20;;;9.80;89.40;;;;;;5026461;28;20421;-65
2021/05/06 07:38:16;;;;;;;0.20;0.20;;;9.80;89.20;;;;;;5017911;28;20132;-65
2021/05/06 07:40:42;;;;;;;0.22;0.22;;;9.90;88.90;;;;;;5015083;28;20386;-65
2021/05/06 07:43:10;;;;;;;0.30;0.30;;;10.00;88.50;;;;;;5029116;28;20091;-65
2021/05/06 07:45:36;;;;;;;0.35;0.35;;;10.20;88.50;;;;;;5031573;28;20157;-65
2021/05/06 07:48:03;;;;;;;0.30;0.30;;;10.20;88.20;;;;;;5026609;28;20049;-65
2021/05/06 07:50:30;;;;;;;0.15;0.15;;;10.30;88.50;;;;;;5030287;28;20137;-65
2021/05/06 07:55:32;;;;;;;0.30;0.30;;;10.30;89.50;;;;;;5015738;28;20463;-65
2021/05/06 07:58:03;;;;;;;0.20;0.20;;;10.30;89.10;;;;;;5030071;28;20534;-65
2021/05/06 08:00:30;;;;;;;0.20;0.20;;;10.40;89.00;;;;;;5014440;28;20044;-65
2021/05/06 08:02:56;;;;;;;0.20;0.20;;;10.50;88.60;;;;;;5014443;28;20049;-65
2021/05/06 08:05:24;;;;;;;0.22;0.22;;;10.60;88.70;;;;;;5014181;28;20092;-65
2021/05/06 08:07:51;;;;;;;0.20;0.20;;;10.70;88.30;;;;;;5013215;28;20084;-65
2021/05/06 08:10:21;;;;;;;0.20;0.20;;;10.80;88.00;;;;;;5017119;28;20049;-65
2021/05/06 08:12:48;;;;;;;0.10;0.10;;;10.90;87.80;;;;;;5025418;28;20067;-65
2021/05/06 08:15:14;;;;;;;0.13;0.13;;;11.00;87.60;;;;;;5050700;28;20505;-65
2021/05/06 08:17:41;;;;;;;0.10;0.10;;;11.10;87.40;;;;;;5046593;28;20046;-65
2021/05/06 08:20:10;;;;;;;0.35;0.20;;;11.20;87.30;;;;;;5030992;28;20098;-65
2021/05/06 08:22:37;;;;;;;0.20;0.20;;;11.30;87.00;;;;;;5026181;28;20408;-65
2021/05/06 08:25:06;;;;;;;0.10;0.10;;;11.40;88.20;;;;;;5045085;28;20779;-65
2021/05/06 08:27:32;;;;;;;0.13;0.13;;;11.60;87.20;;;;;;5046039;28;20098;-65
2021/05/06 08:30:00;;;;;;;0.10;0.10;;;12.00;87.40;;;;;;5022146;28;20512;-65
2021/05/06 08:32:29;;;;;;;0.20;0.20;;;12.40;86.40;;;;;;5033204;28;20045;-65
2021/05/06 08:34:56;;;;;;;0.20;0.20;;;12.60;85.00;;;;;;5031388;28;20085;-65
2021/05/06 08:37:22;;;;;;;0.10;0.10;;;12.70;83.80;;;;;;5032221;28;20057;-65
2021/05/06 08:39:49;;;;;;;0.10;0.10;;;12.80;83.30;;;;;;5049185;28;20052;-65
2021/05/06 08:42:15;;;;;;;0.00;0.00;;;12.80;83.00;;;;;;5049139;28;20135;-65
2021/05/06 08:44:43;;;;;;;0.20;0.20;;;12.90;83.00;;;;;;5050014;28;20081;-65
2021/05/06 08:47:15;;;;;;;0.13;0.13;;;13.00;83.20;;;;;;5047721;28;20045;-65
2021/05/06 08:49:41;;;;;;;0.50;0.30;;;13.20;83.00;;;;;;5033413;28;20053;-65
2021/05/06 08:52:10;;;;;;;0.20;0.20;;;13.30;82.60;;;;;;5034723;28;20053;-65
2021/05/06 08:54:37;;;;;;;0.13;0.13;;;13.40;82.30;;;;;;5035329;28;20060;-65
2021/05/06 08:57:04;;;;;;;0.20;0.20;;;13.40;81.70;;;;;;5038523;28;20049;-65
2021/05/06 08:59:30;;;;;;;0.10;0.10;;;13.40;81.60;;;;;;5024354;28;20149;-65
2021/05/06 09:01:57;;;;;;;0.17;0.17;;;13.30;81.50;;;;;;5015425;28;20125;-65
2021/05/06 09:04:26;;;;;;;0.13;0.13;;;13.30;81.50;;;;;;5016415;28;20184;-65
2021/05/06 09:07:05;;;;;;;0.22;0.20;;;13.30;81.90;;;;;;5027381;28;20132;-65
2021/05/06 09:09:33;;;;;;;0.50;0.30;;;13.40;82.00;;;;;;5023836;28;20118;-65
2021/05/06 09:12:02;;;;;;;0.40;0.40;;;13.40;82.30;;;;;;5016634;28;20050;-65
2021/05/06 09:14:40;;;;;;;0.25;0.25;;;13.40;82.20;;;;;;5022684;28;20089;-65
2021/05/06 09:17:23;;;;;;;0.70;0.50;;;13.50;82.40;;;;;;5035790;28;20053;-65
2021/05/06 09:20:10;;;;;;;0.22;0.22;;;13.60;82.10;;;;;;5011956;28;20081;-65
2021/05/06 09:22:42;;;;;;;0.47;0.45;;;13.80;81.30;;;;;;5015375;28;20124;-65
2021/05/06 09:25:37;;;;;;;0.70;0.45;;;13.80;80.90;;;;;;5027193;28;20064;-65
2021/05/06 09:28:22;;;;;;;0.80;0.63;;;13.90;80.30;;;;;;5010118;28;20050;-65
2021/05/06 09:30:55;;;;;;;0.60;0.50;;;13.90;80.00;;;;;;5026885;28;20125;-65
2021/05/06 09:33:36;;;;;;;0.40;0.40;;;14.20;80.00;;;;;;5026640;28;20056;-65
2021/05/06 09:36:14;;;;;;;0.55;0.50;;;14.30;78.60;;;;;;5012050;28;20069;-65
2021/05/06 09:38:51;;;;;;;0.60;0.60;;;14.40;78.20;;;;;;5033509;28;20077;-65
2021/05/06 09:41:25;;;;;;;0.85;0.52;;;14.40;77.20;;;;;;5023666;28;20137;-65
2021/05/06 09:43:53;;;;;;;0.50;0.35;;;14.30;76.70;;;;;;5020887;28;20049;-65
2021/05/06 09:46:22;;;;;;;0.35;0.30;;;14.20;78.00;;;;;;5019726;28;20046;-65
2021/05/06 09:49:05;;;;;;;0.70;0.55;;;14.10;77.40;;;;;;5039493;28;20056;-65
2021/05/06 09:51:35;;;;;;;0.80;0.60;;;13.90;78.10;;;;;;5030970;28;20547;-65
2021/05/06 09:54:04;;;;;;;0.77;0.50;;;13.80;78.90;;;;;;5034361;28;20539;-65
2021/05/06 09:56:30;;;;;;;0.73;0.50;;;13.60;78.90;;;;;;5039921;28;20053;-65
2021/05/06 09:58:57;;;;;;;0.95;0.55;;;13.60;78.80;;;;;;5023562;28;20451;-65
2021/05/06 10:01:39;;;;;;;0.77;0.60;;;13.50;78.80;;;;;;5039662;28;20501;-65
2021/05/06 10:04:17;;;;;;;0.50;0.50;;;13.50;79.90;;;;;;5037241;28;20053;-65
2021/05/06 10:07:05;;;;;;;1.08;0.80;;;13.40;79.20;;;;;;5038060;28;20550;-65
2021/05/06 10:09:32;;;;;;;1.35;0.82;;;13.50;79.40;;;;;;5013403;28;20060;-65
2021/05/06 10:12:02;;;;;;;1.23;0.60;;;13.50;78.80;;;;;;5018167;28;20086;-64
2021/05/06 10:14:29;;;;;;;0.73;0.52;;;13.50;78.30;;;;;;5014708;28;20155;-65
2021/05/06 10:16:55;;;;;;;0.70;0.57;;;13.40;78.10;;;;;;5011437;28;20192;-64
2021/05/06 10:19:21;;;;;;;0.82;0.70;;;13.40;78.30;;;;;;5012521;28;20164;-65
2021/05/06 10:21:49;;;;;;;0.90;0.63;;;13.30;78.80;;;;;;5012241;28;20042;-64
2021/05/06 10:24:18;;;;;;;1.00;0.77;;;13.30;78.80;;;;;;5014654;28;20119;-66
2021/05/06 10:26:48;;;;;;;1.13;0.75;;;13.20;79.00;;;;;;5031392;28;20045;-66
2021/05/06 10:29:17;;;;;;;0.68;0.68;;;13.20;79.50;;;;;;5030279;28;20044;-67
2021/05/06 10:31:45;;;;;;;0.80;0.65;;;13.20;79.80;;;;;;5030709;28;20149;-66
2021/05/06 10:34:12;;;;;;;0.90;0.70;;;13.20;80.00;;;;;;5031140;28;20545;-68
2021/05/06 10:36:40;;;;;;;1.27;0.90;;;13.20;80.50;;;;;;5027708;28;20136;-70
2021/05/06 10:39:12;;;;;;;1.50;0.93;;;13.10;80.70;;;;;;5011920;28;20084;-71
2021/05/06 10:41:39;;;;;;;1.05;0.82;;;13.00;80.90;;;;;;5012817;28;20132;-70
2021/05/06 10:44:10;;;;;;;0.60;0.55;;;13.10;80.80;;;;;;5012002;28;20091;-69
2021/05/06 10:47:03;;;;;;;0.93;0.77;;;13.10;81.10;;;;;;5029081;28;20173;-69
2021/05/06 10:49:38;;;;;;;1.17;0.75;;;13.20;81.40;;;;;;5015808;28;20132;-70
2021/05/06 10:52:09;;;;;;;1.05;0.68;;;13.20;81.40;;;;;;5018583;28;20141;-70
2021/05/06 10:54:35;;;;;;;;;;;13.30;81.40;;;;;;5016336;28;20077;-69
2021/05/06 10:57:10;;;;;;;1.13;0.70;;;13.30;81.60;;;;;;5020635;28;19944;-70
2021/05/06 10:59:42;;;;;;;0.77;0.60;;;13.30;81.80;;;;;;5047366;28;20069;-69
2021/05/06 11:02:09;;;;;;;1.13;1.00;;;13.30;81.20;;;;;;5024472;28;20486;-69
2021/05/06 11:04:41;;;;;;;2.20;1.10;;;13.30;80.80;;;;;;5015813;28;20073;-70
2021/05/06 11:07:18;;;;;;;1.38;0.80;;;13.40;81.20;;;;;;5016270;28;20049;-69
2021/05/06 11:09:49;;;;;;;1.52;0.90;;;13.50;81.00;;;;;;5017386;28;20121;-69
2021/05/06 11:12:15;;;;;;;;;;;13.90;78.40;;;;;;5018874;28;20450;-65
2021/05/06 11:15:08;;;;;;;1.80;0.98;;;14.20;77.40;;;;;;5026867;28;19921;-64
2021/05/06 11:17:34;;;;;;;1.90;1.13;;;14.60;76.80;;;;;;5000628;28;20042;-65
2021/05/06 11:20:10;;;;;;;2.13;1.05;;;15.00;75.20;;;;;;4995512;28;20046;-65
2021/05/06 11:22:45;;;;;;;1.10;1.00;;;15.30;74.10;;;;;;4996356;28;20116;-65
2021/05/06 11:25:38;;;;;;;1.70;1.00;;;15.60;70.20;;;;;;4993455;28;20086;-65
2021/05/06 11:28:11;;;;;;;1.95;0.85;;;15.90;66.20;;;;;;4972164;28;20096;-66
2021/05/06 11:30:44;;;;;;;1.08;0.70;;;16.00;62.90;;;;;;4973095;28;20125;-66
2021/05/06 11:33:19;;;;;;;1.10;0.90;;;16.20;61.90;;;;;;4975056;28;20112;-66
2021/05/06 11:36:10;;;;;;;0.80;0.80;;;16.30;60.50;;;;;;4982537;28;20046;-67
2021/05/06 11:38:39;;;;;;;0.80;0.75;;;16.40;59.20;;;;;;4972259;28;20067;-67
2021/05/06 11:41:17;;;;;;;0.80;0.60;;;16.40;59.00;;;;;;4985054;28;20042;-65
2021/05/06 11:43:58;;;;;;;1.08;0.80;;;16.40;57.80;;;;;;4993163;28;20043;-67
2021/05/06 11:46:28;;;;;;;0.95;0.70;;;16.60;54.00;;;;;;4986571;28;20043;-66
2021/05/06 11:48:58;;;;;;;1.40;0.68;;;16.70;54.00;;;;;;4978709;28;20129;-66
2021/05/06 11:51:25;;;;;;;0.80;0.80;;;16.70;53.10;;;;;;4970919;28;20426;-65
2021/05/06 11:54:18;;;;;;;0.68;0.60;;;16.70;52.10;;;;;;4983673;28;20050;-69
2021/05/06 11:56:57;;;;;;;0.77;0.60;;;16.80;52.00;;;;;;5016060;28;20132;-69
2021/05/06 11:59:29;;;;;;;0.60;0.52;;;16.90;50.90;;;;;;5025525;28;20648;-69
2021/05/06 12:01:59;;;;;;;0.95;0.73;;;16.90;50.40;;;;;;5045649;28;20548;-69
2021/05/06 12:04:34;;;;;;;1.60;0.80;;;17.00;50.40;;;;;;5050832;28;20052;-69
2021/05/06 12:07:19;;;;;;;1.10;0.82;;;17.00;49.80;;;;;;5050577;28;20179;-69
2021/05/06 12:09:46;;;;;;;1.05;0.80;;;16.90;49.90;;;;;;5041060;28;20124;-68
2021/05/06 12:12:23;;;;;;;0.70;0.70;;;16.80;50.00;;;;;;5038160;28;20107;-69
2021/05/06 12:14:50;;;;;;;1.05;0.70;;;16.70;50.80;;;;;;5038073;28;20124;-69
2021/05/06 12:17:18;;;;;;;1.25;0.88;;;16.70;51.20;;;;;;5045488;28;20486;-69
2021/05/06 12:19:50;;;;;;;1.10;0.80;;;16.70;50.30;;;;;;5042066;28;20132;-69
2021/05/06 12:22:17;;;;;;;0.70;0.70;;;16.60;49.50;;;;;;5050799;28;20041;-68
2021/05/06 12:24:51;;;;;;;1.88;1.02;;;16.50;49.50;;;;;;5049613;28;20153;-68
2021/05/06 12:27:23;;;;;;;1.13;0.70;;;16.50;49.90;;;;;;5051346;28;20045;-68
2021/05/06 12:29:52;;;;;;;1.13;0.90;;;16.50;49.10;;;;;;5046910;28;20155;-69
2021/05/06 12:32:24;;;;;;;0.88;0.80;;;16.40;48.20;;;;;;5033611;28;20045;-69
2021/05/06 12:34:52;;;;;;;1.05;0.85;;;16.40;49.10;;;;;;5033299;28;20509;-68
2021/05/06 12:37:21;;;;;;;0.95;0.80;;;16.40;50.10;;;;;;5034021;28;20536;-69
2021/05/06 12:39:48;;;;;;;1.25;0.95;;;16.50;50.20;;;;;;5033496;28;20497;-69
2021/05/06 12:42:15;;;;;;;1.35;1.00;;;16.50;50.50;;;;;;5033317;28;20481;-69
2021/05/06 12:44:46;;;;;;;1.02;0.77;;;16.60;50.40;;;;;;5033524;28;20179;-69
2021/05/06 12:47:13;;;;;;;0.80;0.70;;;16.70;50.30;;;;;;5033705;28;20051;-69
2021/05/06 12:49:40;;;;;;;1.48;1.08;;;16.70;49.90;;;;;;5033099;28;20054;-69
2021/05/06 12:52:06;;;;;;;1.00;0.80;;;16.60;49.60;;;;;;5033177;28;20130;-69
2021/05/06 12:54:35;;;;;;;2.08;1.13;;;16.70;49.90;;;;;;5033921;28;20497;-69
2021/05/06 12:57:15;;;;;;;0.80;0.80;;;16.80;48.10;;;;;;5032889;28;20175;-69
2021/05/06 12:59:49;;;;;;;1.17;0.70;;;16.80;48.20;;;;;;5033221;28;20160;-69
2021/05/06 13:02:17;;;;;;;1.05;0.82;;;16.90;46.40;;;;;;5032999;28;20045;-69
2021/05/06 13:04:51;;;;;;;1.15;0.85;;;16.90;46.90;;;;;;5032722;28;20140;-69
2021/05/06 13:07:19;;;;;;;1.05;0.90;;;16.90;46.20;;;;;;5018114;28;20042;-69
2021/05/06 13:09:51;;;;;;;1.17;0.90;;;17.00;46.50;;;;;;5022014;28;20140;-69
2021/05/06 13:12:19;;;;;;;1.65;1.10;;;17.00;45.70;;;;;;5035434;28;20120;-69
2021/05/06 13:14:48;;;;;;;0.70;0.70;;;17.00;45.80;;;;;;5034283;28;20045;-69
2021/05/06 13:17:22;;;;;;;0.95;0.85;;;17.00;45.10;;;;;;5035642;28;20045;-70
2021/05/06 13:19:48;;;;;;;1.20;1.00;;;17.00;44.40;;;;;;5034072;28;20124;-68
2021/05/06 13:22:14;;;;;;;2.20;1.10;;;17.00;45.20;;;;;;5027477;28;20050;-68
2021/05/06 13:24:43;;;;;;;1.00;0.90;;;16.90;45.60;;;;;;5015799;28;20133;-68
2021/05/06 13:27:19;;;;;;;1.15;0.80;;;16.80;45.10;;;;;;5012517;28;20042;-68
2021/05/06 13:30:06;;;;;;;1.35;0.90;;;16.80;44.70;;;;;;5013089;28;20117;-68
2021/05/06 13:32:41;;;;;;;1.27;0.90;;;16.80;44.90;;;;;;5013253;28;20801;-68
2021/05/06 13:35:16;;;;;;;0.90;0.80;;;16.80;44.70;;;;;;5015400;28;20196;-68
2021/05/06 13:37:46;;;;;;;1.42;0.90;;;16.80;44.40;;;;;;5022883;28;20060;-68
2021/05/06 13:40:12;;;;;;;1.10;0.82;;;16.80;44.30;;;;;;5019151;28;20088;-68
2021/05/06 13:42:39;;;;;;;1.10;1.00;;;16.90;44.80;;;;;;5035273;28;20061;-68
2021/05/06 13:45:09;;;;;;;1.02;0.75;;;17.00;43.20;;;;;;5028479;28;20037;-68
2021/05/06 13:47:35;;;;;;;0.88;0.70;;;17.00;43.10;;;;;;5032075;28;20050;-68
2021/05/06 13:50:01;;;;;;;0.90;0.70;;;17.00;43.50;;;;;;5018423;28;20038;-69
2021/05/06 13:52:28;;;;;;;1.90;1.00;;;17.00;43.90;;;;;;5024868;28;20500;-68
2021/05/06 13:54:54;;;;;;;1.02;0.82;;;16.80;43.80;;;;;;5019524;28;20049;-69
2021/05/06 13:57:21;;;;;;;1.70;0.98;;;16.80;45.70;;;;;;5021180;28;20128;-69
2021/05/06 13:59:47;;;;;;;1.38;0.90;;;16.70;44.70;;;;;;5038044;28;20049;-68
2021/05/06 14:02:16;;;;;;;0.82;0.70;;;16.70;44.70;;;;;;5038388;28;20056;-68
2021/05/06 14:04:43;;;;;;;1.08;0.90;;;16.70;45.10;;;;;;5036133;28;20202;-68
2021/05/06 14:07:09;;;;;;;1.10;0.80;;;16.60;45.60;;;;;;5040176;28;20037;-68
2021/05/06 14:09:35;;;;;;;1.63;1.02;;;16.60;45.90;;;;;;5028866;28;20061;-68
2021/05/06 14:12:02;;;;;;;1.17;0.70;;;16.60;45.90;;;;;;5032179;28;20045;-68
2021/05/06 14:14:28;;;;;;;1.60;1.00;;;16.50;46.00;;;;;;5034592;28;20517;-68
2021/05/06 14:16:54;;;;;;;1.60;0.90;;;16.50;46.10;;;;;;5020418;28;20065;-69
2021/05/06 14:19:20;;;;;;;1.42;1.00;;;16.50;46.60;;;;;;5048377;28;20176;-68
2021/05/06 14:21:48;;;;;;;1.13;0.77;;;16.40;47.00;;;;;;5050589;28;20049;-69
2021/05/06 14:24:15;;;;;;;1.73;1.00;;;16.50;47.90;;;;;;5021347;28;20053;-69
2021/05/06 14:26:44;;;;;;;1.35;0.90;;;16.50;48.20;;;;;;5019747;28;20045;-69
2021/05/06 14:29:12;;;;;;;1.15;0.80;;;16.60;48.00;;;;;;5013525;28;20054;-69
2021/05/06 14:31:39;;;;;;;1.02;0.82;;;16.60;48.10;;;;;;5016709;28;20045;-69
2021/05/06 14:34:05;;;;;;;0.90;0.80;;;16.60;47.80;;;;;;5014527;28;20517;-69
2021/05/06 14:36:31;;;;;;;2.13;1.00;;;16.60;47.60;;;;;;5034726;28;20128;-69
2021/05/06 14:39:01;;;;;;;1.42;0.90;;;16.60;47.30;;;;;;5035657;28;20046;-69
2021/05/06 14:41:28;;;;;;;0.90;0.90;;;16.60;47.20;;;;;;5038246;28;20037;-68
2021/05/06 14:43:55;;;;;;;1.02;0.90;;;16.60;47.80;;;;;;5031222;28;20615;-69
2021/05/06 14:46:22;;;;;;;0.98;0.88;;;16.60;47.90;;;;;;5011711;28;20053;-69
2021/05/06 14:48:49;;;;;;;0.77;0.70;;;16.50;47.80;;;;;;5011098;28;20038;-69
2021/05/06 14:51:16;;;;;;;1.08;0.80;;;16.50;47.80;;;;;;5021619;28;20111;-69
2021/05/06 14:53:42;;;;;;;0.88;0.70;;;16.40;48.40;;;;;;5035121;28;20738;-69
2021/05/06 14:56:09;;;;;;;1.13;0.90;;;16.30;48.80;;;;;;5032793;28;20427;-69
2021/05/06 14:58:35;;;;;;;0.90;0.90;;;16.30;49.20;;;;;;5031457;28;20057;-69
2021/05/06 15:01:02;;;;;;;1.27;0.93;;;16.20;49.50;;;;;;5014330;28;20049;-68
2021/05/06 15:03:29;;;;;;;1.52;1.10;;;16.20;49.40;;;;;;5025381;28;20124;-69
2021/05/06 15:05:55;;;;;;;1.05;0.80;;;16.20;49.20;;;;;;5035889;28;20090;-69
2021/05/06 15:08:22;;;;;;;1.10;0.93;;;16.10;49.40;;;;;;5028296;28;20097;-69
2021/05/06 15:10:48;;;;;;;0.98;0.93;;;16.10;49.90;;;;;;5018623;28;20061;-68
2021/05/06 15:13:15;;;;;;;1.38;1.00;;;16.10;50.50;;;;;;5029696;28;20057;-68
2021/05/06 15:15:42;;;;;;;0.98;0.80;;;16.00;50.80;;;;;;5028486;28;20067;-68
2021/05/06 15:18:08;;;;;;;0.77;0.73;;;16.00;51.20;;;;;;5020376;28;20413;-68
2021/05/06 15:20:35;;;;;;;0.77;0.77;;;15.90;51.20;;;;;;5035483;28;20105;-68
2021/05/06 15:23:02;;;;;;;1.10;0.70;;;15.90;51.70;;;;;;5042242;28;20120;-68
2021/05/06 15:25:30;;;;;;;1.00;0.80;;;16.00;52.70;;;;;;5013015;28;20050;-68
2021/05/06 15:27:56;;;;;;;1.15;0.90;;;15.90;53.30;;;;;;5043448;28;20502;-68
2021/05/06 15:30:23;;;;;;;0.85;0.60;;;15.80;53.60;;;;;;5023865;28;20196;-68
2021/05/06 15:32:50;;;;;;;1.15;0.93;;;15.80;53.80;;;;;;5021206;28;20409;-68
2021/05/06 15:35:17;;;;;;;0.88;0.80;;;15.70;53.70;;;;;;5035779;28;20057;-69
2021/05/06 15:37:44;;;;;;;1.25;0.80;;;15.70;54.00;;;;;;5017684;28;20041;-68
2021/05/06 15:40:14;;;;;;;1.00;0.85;;;15.60;54.20;;;;;;5014762;28;20077;-69
2021/05/06 15:42:41;;;;;;;1.35;0.93;;;15.70;54.50;;;;;;5024333;28;20493;-69
2021/05/06 15:45:09;;;;;;;0.80;0.80;;;15.60;54.40;;;;;;5014080;28;20068;-69
2021/05/06 15:47:37;;;;;;;1.13;0.80;;;15.70;55.30;;;;;;5014285;28;20053;-69
2021/05/06 15:50:06;;;;;;;0.80;0.70;;;15.60;55.60;;;;;;5013974;28;20042;-69
2021/05/06 15:52:32;;;;;;;1.88;0.90;;;15.60;56.70;;;;;;5014436;28;20041;-69
2021/05/06 15:54:59;;;;;;;1.10;0.80;;;15.60;56.70;;;;;;5017946;28;20089;-69
2021/05/06 15:57:25;;;;;;;1.30;0.80;;;15.60;57.40;;;;;;5021584;28;20115;-68
2021/05/06 15:59:52;;;;;;;0.65;0.60;;;15.60;57.40;;;;;;5044011;28;20044;-69
2021/05/06 16:02:21;;;;;;;1.45;1.00;;;15.60;57.50;;;;;;5028381;28;20083;-69
2021/05/06 16:04:47;;;;;;;0.75;0.63;;;15.60;57.40;;;;;;5030725;28;20108;-69
2021/05/06 16:07:15;;;;;;;1.02;0.93;;;15.60;57.20;;;;;;5018247;28;20053;-70
2021/05/06 16:09:42;;;;;;;1.92;1.00;;;15.60;57.40;;;;;;5015547;28;20046;-70
2021/05/06 16:12:08;;;;;;;1.27;0.90;;;15.60;57.50;;;;;;5015782;28;20475;-69
2021/05/06 16:14:34;;;;;;;1.50;0.95;;;15.60;58.00;;;;;;5014490;28;20261;-69
2021/05/06 16:17:01;;;;;;;0.70;0.70;;;15.60;58.50;;;;;;5013949;28;20125;-69
2021/05/06 16:19:27;;;;;;;0.77;0.77;;;15.50;58.40;;;;;;5013971;28;20133;-68
2021/05/06 16:21:53;;;;;;;1.20;1.00;;;15.50;58.60;;;;;;5014911;28;20140;-68
2021/05/06 16:24:20;;;;;;;1.40;0.90;;;15.50;58.60;;;;;;5033365;28;20486;-68
2021/05/06 16:26:47;;;;;;;1.13;0.90;;;15.40;58.60;;;;;;5033188;28;20378;-69
2021/05/06 16:29:15;;;;;;;2.13;0.85;;;15.40;58.50;;;;;;5030065;28;20045;-69